Time;durP1;ratioP1;P1;durP2;ratioP2;P2;SDS_P1;SDS_P2;PMS_P1;PMS_P2;Temp;Humidity;BMP_temperature;BMP_pressure;BME280_temperature;BME280_humidity;BME280_pressure;Samples;Min_cycle;Max_cycle;Signal;HPM_P1;HPM_P2
2021/06/11 00:00:44;;;;;;;1.20;1.10;;;17.70;99.90;;;;;;4847127;29;20045;-94
2021/06/11 00:03:10;;;;;;;1.67;1.00;;;17.70;99.90;;;;;;4846001;29;20025;-93
2021/06/11 00:05:37;;;;;;;2.50;0.95;;;17.70;99.90;;;;;;4845465;29;20635;-93
2021/06/11 00:08:03;;;;;;;5.53;1.20;;;17.70;99.90;;;;;;4846504;29;20053;-94
2021/06/11 00:10:29;;;;;;;2.60;1.35;;;17.70;99.90;;;;;;4846584;29;20040;-93
2021/06/11 00:12:56;;;;;;;1.15;0.80;;;17.70;99.90;;;;;;4846547;29;20038;-94
2021/06/11 00:15:22;;;;;;;1.27;1.17;;;17.70;99.90;;;;;;4846891;29;20029;-93
2021/06/11 00:17:47;;;;;;;1.63;0.98;;;17.70;99.90;;;;;;4846847;29;20093;-94
2021/06/11 00:20:14;;;;;;;2.63;1.20;;;17.70;99.90;;;;;;4846771;29;20025;-94
2021/06/11 00:22:40;;;;;;;2.50;1.10;;;17.70;99.90;;;;;;4846331;29;20033;-94
2021/06/11 00:25:12;;;;;;;2.30;1.00;;;17.70;99.90;;;;;;4847117;29;20144;-92
2021/06/11 00:27:38;;;;;;;1.88;1.00;;;17.70;99.90;;;;;;4847920;29;20033;-94
2021/06/11 00:30:05;;;;;;;1.50;1.00;;;17.70;99.90;;;;;;4863520;29;20062;-93
2021/06/11 00:32:31;;;;;;;2.80;1.17;;;17.70;99.90;;;;;;4846556;29;20032;-95
2021/06/11 00:34:56;;;;;;;2.70;0.90;;;17.70;99.90;;;;;;4847375;29;20021;-94
2021/06/11 00:37:22;;;;;;;1.48;0.95;;;17.60;99.90;;;;;;4847034;29;20105;-93
2021/06/11 00:39:48;;;;;;;2.88;1.10;;;17.60;99.90;;;;;;4846621;29;20048;-96
2021/06/11 00:42:13;;;;;;;1.45;0.90;;;17.60;99.90;;;;;;4847215;29;20396;-95
2021/06/11 00:44:39;;;;;;;1.92;1.02;;;17.60;99.90;;;;;;4872116;29;20057;-93
2021/06/11 00:47:05;;;;;;;2.97;1.10;;;17.60;99.90;;;;;;4848294;29;20041;-93
2021/06/11 00:49:31;;;;;;;1.17;1.00;;;17.60;99.90;;;;;;4847724;29;20507;-93
2021/06/11 00:51:57;;;;;;;1.48;0.93;;;17.60;99.90;;;;;;4847804;29;20030;-94
2021/06/11 00:54:23;;;;;;;2.03;1.10;;;17.60;99.90;;;;;;4847408;29;20043;-94
2021/06/11 00:56:49;;;;;;;1.73;1.23;;;17.60;99.90;;;;;;4861304;29;20110;-93
2021/06/11 00:59:16;;;;;;;1.35;1.20;;;17.50;99.90;;;;;;4846813;29;20033;-94
2021/06/11 01:01:42;;;;;;;3.95;1.05;;;17.50;99.90;;;;;;4847694;29;20602;-94
2021/06/11 01:04:11;;;;;;;1.75;1.00;;;17.50;99.90;;;;;;4848661;29;20140;-93
2021/06/11 01:06:40;;;;;;;2.38;0.95;;;17.50;99.90;;;;;;4848022;29;20048;-96
2021/06/11 01:09:07;;;;;;;3.42;1.05;;;17.40;99.90;;;;;;4864341;29;20085;-95
2021/06/11 01:11:33;;;;;;;1.83;1.38;;;17.40;99.90;;;;;;4863692;29;20033;-93
2021/06/11 01:13:59;;;;;;;1.77;1.05;;;17.40;99.90;;;;;;4848636;29;20159;-94
2021/06/11 01:16:25;;;;;;;1.48;1.13;;;17.40;99.90;;;;;;4851764;29;20127;-94
2021/06/11 01:18:52;;;;;;;3.35;1.33;;;17.40;99.90;;;;;;4866169;29;20025;-95
2021/06/11 01:21:20;;;;;;;2.25;1.30;;;17.30;99.90;;;;;;4850275;29;20042;-93
2021/06/11 01:24:05;;;;;;;2.17;1.25;;;17.30;99.90;;;;;;4850013;29;20028;-94
2021/06/11 01:26:35;;;;;;;1.20;1.10;;;17.30;99.90;;;;;;4849964;29;20576;-93
2021/06/11 01:29:06;;;;;;;2.08;1.25;;;17.30;99.90;;;;;;4850250;29;20029;-95
2021/06/11 01:31:34;;;;;;;2.13;1.27;;;17.20;99.90;;;;;;4866630;29;20037;-94
2021/06/11 01:34:11;;;;;;;2.72;1.27;;;17.20;99.90;;;;;;4869298;29;20033;-93
2021/06/11 01:36:40;;;;;;;1.45;1.13;;;17.20;99.90;;;;;;4856449;29;20754;-94
2021/06/11 01:39:08;;;;;;;1.00;0.95;;;17.10;99.90;;;;;;4855933;29;20033;-93
2021/06/11 01:41:35;;;;;;;2.17;1.20;;;17.20;99.90;;;;;;4855940;29;20029;-93
2021/06/11 01:44:02;;;;;;;3.75;1.80;;;17.10;99.90;;;;;;4855316;29;20037;-94
2021/06/11 01:46:32;;;;;;;4.13;1.30;;;17.10;99.90;;;;;;4870869;29;20046;-94
2021/06/11 01:49:00;;;;;;;1.77;1.00;;;17.10;99.90;;;;;;4851009;29;20038;-93
2021/06/11 01:51:27;;;;;;;3.47;1.10;;;17.10;99.90;;;;;;4850836;29;20479;-94
2021/06/11 01:53:54;;;;;;;1.88;1.30;;;17.10;99.90;;;;;;4850208;29;20036;-93
2021/06/11 01:56:20;;;;;;;1.77;1.20;;;17.00;99.90;;;;;;4866753;29;20053;-94
2021/06/11 01:58:47;;;;;;;1.42;1.17;;;17.10;99.90;;;;;;4852524;29;20045;-94
2021/06/11 02:01:13;;;;;;;1.63;1.52;;;17.00;99.90;;;;;;4852423;29;20037;-94
2021/06/11 02:03:40;;;;;;;2.92;1.20;;;17.00;99.90;;;;;;4851847;29;20102;-94
2021/06/11 02:06:10;;;;;;;3.05;1.20;;;17.00;99.90;;;;;;4870864;29;20026;-94
2021/06/11 02:08:39;;;;;;;3.33;1.48;;;17.00;99.90;;;;;;4855693;29;20060;-93
2021/06/11 02:11:05;;;;;;;3.03;1.50;;;17.00;99.90;;;;;;4852935;29;20331;-93
2021/06/11 02:13:32;;;;;;;1.90;1.50;;;17.00;99.90;;;;;;4868555;29;20031;-93
2021/06/11 02:15:58;;;;;;;1.98;1.23;;;17.00;99.90;;;;;;4868664;29;20025;-93
2021/06/11 02:18:25;;;;;;;4.13;1.35;;;16.90;99.90;;;;;;4850564;29;20029;-93
2021/06/11 02:20:54;;;;;;;1.70;1.40;;;17.00;99.90;;;;;;4848857;29;20161;-94
2021/06/11 02:23:20;;;;;;;1.75;1.33;;;16.90;99.90;;;;;;4847694;29;20037;-93
2021/06/11 02:25:49;;;;;;;1.33;1.23;;;16.90;99.90;;;;;;4865340;29;20404;-94
2021/06/11 02:28:18;;;;;;;2.30;1.35;;;16.90;99.90;;;;;;4833001;29;20030;-95
2021/06/11 02:30:44;;;;;;;3.75;1.20;;;16.80;99.90;;;;;;4847796;29;20048;-92
2021/06/11 02:33:14;;;;;;;5.10;1.30;;;16.80;99.90;;;;;;4865437;29;20036;-94
2021/06/11 02:35:41;;;;;;;2.75;1.30;;;16.80;99.90;;;;;;4852120;29;20417;-94
2021/06/11 02:38:07;;;;;;;1.50;1.27;;;16.80;99.90;;;;;;4852743;29;20509;-94
2021/06/11 02:40:33;;;;;;;3.38;1.50;;;16.80;99.90;;;;;;4868336;29;20053;-94
2021/06/11 02:43:08;;;;;;;12.07;2.97;;;16.70;99.90;;;;;;4852352;29;20194;-95
2021/06/11 02:45:59;;;;;;;2.42;1.40;;;16.70;99.90;;;;;;4850901;29;20078;-93
2021/06/11 03:02:03;;;;;;;3.47;1.42;;;16.60;99.90;;;;;;5055204;24;20053;-95
2021/06/11 03:04:30;;;;;;;4.43;2.15;;;16.50;99.90;;;;;;4893237;29;20111;-94
2021/06/11 03:06:57;;;;;;;4.63;1.63;;;16.50;99.90;;;;;;4919614;29;20036;-94
2021/06/11 03:09:27;;;;;;;4.32;1.45;;;16.50;99.90;;;;;;4888563;29;20031;-92
2021/06/11 03:11:56;;;;;;;4.20;1.60;;;16.50;99.90;;;;;;4877620;29;20470;-95
2021/06/11 03:14:24;;;;;;;2.03;1.40;;;16.50;99.90;;;;;;4886281;29;20312;-92
2021/06/11 03:16:53;;;;;;;1.55;1.30;;;16.50;99.90;;;;;;4884843;29;20070;-95
2021/06/11 03:19:21;;;;;;;1.67;1.40;;;16.50;99.90;;;;;;4883116;29;20032;-93
2021/06/11 03:21:54;;;;;;;2.72;1.75;;;16.50;99.90;;;;;;4883479;29;20483;-93
2021/06/11 03:24:46;;;;;;;2.10;1.52;;;16.40;99.90;;;;;;4883500;29;20040;-92
2021/06/11 03:27:19;;;;;;;2.45;1.40;;;16.40;99.90;;;;;;4886108;29;20072;-92
2021/06/11 03:29:54;;;;;;;2.25;1.40;;;16.40;99.90;;;;;;4889423;29;20471;-92
2021/06/11 03:32:26;;;;;;;2.95;1.80;;;16.40;99.90;;;;;;4882022;29;20045;-95
2021/06/11 03:34:55;;;;;;;4.35;1.83;;;16.40;99.90;;;;;;4870120;29;20104;-93
2021/06/11 03:37:24;;;;;;;2.55;1.70;;;16.40;99.90;;;;;;4889393;29;20028;-92
2021/06/11 03:39:57;;;;;;;3.13;1.40;;;16.40;99.90;;;;;;4872429;29;20033;-92
2021/06/11 03:42:25;;;;;;;1.98;1.40;;;16.40;99.90;;;;;;4889101;29;20025;-93
2021/06/11 03:44:52;;;;;;;3.83;1.92;;;16.40;99.90;;;;;;4887748;29;20028;-93
2021/06/11 03:47:21;;;;;;;5.82;1.80;;;16.50;99.90;;;;;;4872397;29;20150;-92
2021/06/11 03:49:51;;;;;;;2.58;1.73;;;16.50;99.90;;;;;;4886126;29;20119;-93
2021/06/11 03:52:32;;;;;;;5.25;1.77;;;16.50;99.90;;;;;;4887745;29;20443;-94
2021/06/11 03:55:03;;;;;;;;;;;16.60;99.90;;;;;;4872072;29;20048;-94
2021/06/11 03:57:31;;;;;;;2.47;1.70;;;16.60;99.90;;;;;;4887859;29;19919;-93
2021/06/11 04:00:00;;;;;;;3.10;1.75;;;16.60;99.90;;;;;;4872022;29;20065;-94
2021/06/11 04:02:26;;;;;;;2.85;1.85;;;16.60;99.90;;;;;;4887647;29;20088;-94
2021/06/11 04:04:52;;;;;;;5.93;2.03;;;16.60;99.90;;;;;;4887466;29;20029;-93
2021/06/11 04:07:27;;;;;;;2.20;1.85;;;16.60;99.90;;;;;;4888058;29;20049;-96
2021/06/11 04:10:06;;;;;;;3.55;1.63;;;16.60;99.90;;;;;;4887793;29;20036;-93
2021/06/11 04:12:47;;;;;;;2.97;1.92;;;16.60;99.90;;;;;;4871828;29;20040;-93
2021/06/11 04:15:15;;;;;;;2.35;1.55;;;16.60;99.90;;;;;;4888491;29;20446;-94
2021/06/11 04:17:47;;;;;;;2.92;1.77;;;16.60;99.90;;;;;;4889221;29;20088;-94
2021/06/11 04:20:24;;;;;;;3.65;2.08;;;16.60;99.90;;;;;;4884375;29;20056;-94
2021/06/11 04:22:51;;;;;;;4.05;1.70;;;16.60;99.90;;;;;;4884916;29;20032;-94
2021/06/11 04:25:18;;;;;;;1.60;1.48;;;16.60;99.90;;;;;;4886051;29;20108;-93
2021/06/11 04:27:49;;;;;;;2.60;1.65;;;16.60;99.90;;;;;;4887646;29;20029;-94
2021/06/11 04:30:15;;;;;;;3.00;1.45;;;16.60;99.90;;;;;;4867049;29;20120;-94
2021/06/11 04:32:41;;;;;;;2.20;1.52;;;16.70;99.90;;;;;;4881992;29;20406;-94
2021/06/11 04:35:08;;;;;;;3.88;2.47;;;16.70;99.90;;;;;;4886983;29;20033;-93
2021/06/11 04:37:38;;;;;;;;;;;16.70;99.90;;;;;;4889917;29;20044;-94
2021/06/11 04:40:07;;;;;;;5.15;1.55;;;16.70;99.90;;;;;;4887592;29;19932;-94
2021/06/11 04:42:35;;;;;;;1.80;1.48;;;16.70;99.90;;;;;;4886892;29;20053;-93
2021/06/11 04:45:02;;;;;;;2.25;1.33;;;16.70;99.90;;;;;;4893505;29;20029;-93
2021/06/11 04:47:29;;;;;;;3.38;1.30;;;16.70;99.90;;;;;;4890087;29;20131;-94
2021/06/11 04:49:55;;;;;;;2.28;1.63;;;16.70;99.90;;;;;;4884795;29;20112;-95
2021/06/11 04:52:21;;;;;;;1.80;1.30;;;16.70;99.90;;;;;;4884925;29;20486;-94
2021/06/11 04:54:47;;;;;;;2.20;1.48;;;16.70;99.90;;;;;;4885263;29;20032;-96
2021/06/11 04:57:13;;;;;;;2.15;1.38;;;16.70;99.90;;;;;;4885348;29;20029;-94
2021/06/11 04:59:39;;;;;;;2.17;1.55;;;16.70;99.90;;;;;;4885607;29;20033;-94
2021/06/11 05:02:04;;;;;;;3.15;1.50;;;16.80;99.90;;;;;;4885154;29;20036;-94
2021/06/11 05:04:30;;;;;;;2.47;1.30;;;16.80;99.90;;;;;;4885223;29;20056;-95
2021/06/11 05:06:56;;;;;;;2.22;1.30;;;16.80;99.90;;;;;;4889032;29;20083;-95
2021/06/11 05:09:23;;;;;;;1.80;1.20;;;16.90;99.90;;;;;;4889312;29;20103;-96
2021/06/11 05:11:54;;;;;;;2.15;1.00;;;16.90;99.90;;;;;;4889737;29;20044;-94
2021/06/11 05:14:20;;;;;;;;;;;16.90;99.90;;;;;;4890158;29;20033;-95
2021/06/11 05:16:46;;;;;;;1.13;0.88;;;16.90;99.90;;;;;;4889836;29;19911;-94
2021/06/11 05:19:11;;;;;;;3.08;1.23;;;17.00;99.90;;;;;;4891749;29;20044;-94
2021/06/11 05:21:37;;;;;;;2.08;1.10;;;17.00;99.90;;;;;;4872816;29;20514;-95
2021/06/11 05:24:03;;;;;;;1.55;1.15;;;17.00;99.90;;;;;;4885808;29;20021;-94
2021/06/11 05:26:29;;;;;;;1.13;0.98;;;17.00;99.90;;;;;;4885220;29;20041;-96
2021/06/11 05:28:54;;;;;;;4.95;1.40;;;17.00;99.90;;;;;;4884535;29;20032;-93
2021/06/11 05:31:20;;;;;;;1.67;1.10;;;17.00;99.90;;;;;;4883954;29;20029;-96
2021/06/11 05:33:46;;;;;;;1.08;0.82;;;16.90;99.90;;;;;;4884422;29;20080;-94
2021/06/11 05:36:13;;;;;;;3.35;1.30;;;16.90;99.90;;;;;;4893212;29;20048;-96
2021/06/11 05:38:39;;;;;;;2.70;1.95;;;17.00;99.90;;;;;;4900877;29;20060;-94
2021/06/11 05:41:05;;;;;;;6.20;1.10;;;17.00;99.90;;;;;;4887207;29;20029;-93
2021/06/11 05:43:31;;;;;;;1.50;0.95;;;17.00;99.90;;;;;;4902955;29;20029;-95
2021/06/11 05:46:07;;;;;;;0.93;0.77;;;17.00;99.90;;;;;;4904328;29;20052;-95
2021/06/11 05:48:33;;;;;;;1.90;1.00;;;17.00;99.90;;;;;;4899535;29;20055;-94
2021/06/11 05:51:07;;;;;;;1.52;0.77;;;17.10;99.90;;;;;;4891944;29;20101;-95
2021/06/11 05:53:33;;;;;;;1.30;1.02;;;17.10;99.90;;;;;;4889914;29;20017;-96
2021/06/11 05:56:01;;;;;;;0.47;0.47;;;17.10;99.90;;;;;;4899346;29;20036;-96
2021/06/11 05:58:29;;;;;;;1.58;0.93;;;17.20;99.90;;;;;;4905064;29;20052;-96
2021/06/11 06:00:59;;;;;;;1.05;0.70;;;17.20;99.90;;;;;;4898384;29;20033;-95
2021/06/11 06:03:24;;;;;;;0.77;0.60;;;17.20;99.90;;;;;;4887409;29;20133;-95
2021/06/11 06:05:51;;;;;;;1.77;0.75;;;17.10;99.90;;;;;;4894983;29;20056;-96
2021/06/11 06:08:21;;;;;;;1.65;0.60;;;17.10;99.90;;;;;;4895726;29;20102;-95
2021/06/11 06:10:47;;;;;;;3.17;0.70;;;17.20;99.90;;;;;;4911809;29;20168;-95
2021/06/11 06:13:14;;;;;;;1.08;0.70;;;17.20;99.90;;;;;;4897777;29;20130;-96
2021/06/11 06:15:42;;;;;;;2.28;0.85;;;17.20;99.90;;;;;;4899346;29;20005;-94
2021/06/11 06:18:09;;;;;;;1.20;0.60;;;17.20;99.90;;;;;;4950857;23;20055;-94
2021/06/11 06:20:37;;;;;;;0.98;0.77;;;17.10;99.90;;;;;;4880489;29;20032;-96
2021/06/11 06:23:03;;;;;;;1.55;0.50;;;17.20;99.90;;;;;;4882297;29;20032;-95
2021/06/11 06:25:28;;;;;;;1.00;0.68;;;17.20;99.90;;;;;;4876446;29;20025;-96
2021/06/11 06:27:55;;;;;;;2.50;0.70;;;17.20;99.90;;;;;;4891846;29;20028;-96
2021/06/11 06:30:23;;;;;;;1.77;0.60;;;17.20;99.90;;;;;;4874414;29;20025;-95
2021/06/11 06:32:50;;;;;;;2.55;0.85;;;17.20;99.90;;;;;;4877417;29;20052;-96
2021/06/11 06:35:17;;;;;;;2.47;0.63;;;17.30;99.90;;;;;;4873345;29;20032;-96
2021/06/11 06:37:43;;;;;;;1.75;0.60;;;17.30;99.90;;;;;;4880442;29;20037;-95
2021/06/11 06:40:14;;;;;;;0.63;0.57;;;17.40;99.90;;;;;;4884317;29;20044;-94
2021/06/11 06:42:42;;;;;;;2.17;0.50;;;17.40;99.90;;;;;;4882725;29;20029;-95
2021/06/11 06:45:13;;;;;;;0.70;0.50;;;17.50;99.90;;;;;;4875787;29;20041;-96
2021/06/11 06:47:44;;;;;;;1.13;0.68;;;17.60;99.90;;;;;;4891708;29;20053;-94
2021/06/11 06:50:13;;;;;;;1.75;0.52;;;17.60;99.90;;;;;;4874834;29;20029;-96
2021/06/11 06:52:39;;;;;;;2.03;0.40;;;17.80;99.90;;;;;;4891223;29;20051;-94
2021/06/11 06:55:09;;;;;;;1.92;0.60;;;17.80;99.90;;;;;;4889276;29;20072;-94
2021/06/11 06:57:34;;;;;;;3.33;0.50;;;17.90;99.90;;;;;;4871510;29;20057;-93
2021/06/11 07:00:00;;;;;;;4.60;0.57;;;17.80;99.90;;;;;;4880563;29;20036;-95
2021/06/11 07:02:27;;;;;;;0.77;0.60;;;17.90;99.90;;;;;;4897892;29;20021;-95
2021/06/11 07:04:53;;;;;;;6.50;0.65;;;17.90;99.90;;;;;;4868724;29;20041;-96
2021/06/11 07:07:19;;;;;;;2.30;0.50;;;17.80;99.90;;;;;;4895718;29;20040;-95
2021/06/11 07:09:46;;;;;;;0.50;0.50;;;17.80;99.90;;;;;;4875831;29;20021;-95
2021/06/11 07:12:12;;;;;;;2.17;0.70;;;17.80;99.90;;;;;;4891200;29;20025;-94
2021/06/11 07:14:41;;;;;;;0.47;0.38;;;17.70;99.90;;;;;;4887443;29;20028;-96
2021/06/11 07:17:07;;;;;;;2.25;0.70;;;17.70;99.90;;;;;;4877124;29;20034;-93
2021/06/11 07:19:35;;;;;;;2.40;0.60;;;17.70;99.90;;;;;;4891172;29;20080;-95
2021/06/11 07:22:03;;;;;;;7.28;0.80;;;17.70;99.90;;;;;;4865706;29;20040;-94
2021/06/11 07:27:19;;;;;;;5.78;0.80;;;17.70;99.90;;;;;;4833920;29;20046;-94
2021/06/11 07:29:45;;;;;;;4.35;0.60;;;17.70;99.90;;;;;;4840848;29;20034;-94
2021/06/11 07:32:13;;;;;;;3.60;0.75;;;17.70;99.90;;;;;;4840717;29;20034;-94
2021/06/11 07:34:39;;;;;;;1.48;0.60;;;17.60;99.90;;;;;;4839548;29;20203;-93
2021/06/11 07:37:05;;;;;;;0.40;0.30;;;17.60;99.90;;;;;;4842120;29;20037;-94
2021/06/11 07:39:31;;;;;;;1.17;0.52;;;17.60;99.90;;;;;;4845739;29;20026;-94
2021/06/11 07:41:57;;;;;;;3.50;0.82;;;17.50;99.90;;;;;;4841586;29;20057;-94
2021/06/11 07:44:23;;;;;;;4.53;0.70;;;17.50;99.90;;;;;;4843343;29;20515;-93
2021/06/11 07:46:49;;;;;;;0.98;0.43;;;17.50;99.90;;;;;;4841820;29;20042;-94
2021/06/11 07:49:15;;;;;;;1.10;0.52;;;17.50;99.90;;;;;;4838935;29;20025;-96
2021/06/11 07:51:41;;;;;;;3.00;1.33;;;17.50;99.90;;;;;;4828629;29;20041;-94
2021/06/11 07:54:09;;;;;;;0.47;0.47;;;17.50;99.90;;;;;;4844198;29;20056;-94
2021/06/11 07:56:37;;;;;;;3.58;0.60;;;17.40;99.90;;;;;;4844918;29;20030;-94
2021/06/11 07:59:03;;;;;;;0.90;0.60;;;17.40;99.90;;;;;;4827821;29;20709;-93
2021/06/11 08:01:34;;;;;;;4.82;0.80;;;17.40;99.90;;;;;;4845263;29;20033;-94
2021/06/11 08:04:00;;;;;;;;;;;17.50;99.90;;;;;;4845261;29;20485;-94
2021/06/11 08:06:25;;;;;;;3.50;0.70;;;17.50;99.90;;;;;;4835062;29;19919;-95
2021/06/11 08:08:51;;;;;;;3.38;0.77;;;17.60;99.90;;;;;;4835660;29;20048;-94
2021/06/11 08:11:17;;;;;;;1.58;0.70;;;17.60;99.90;;;;;;4857789;29;20045;-96
2021/06/11 08:13:43;;;;;;;1.08;0.50;;;17.60;99.90;;;;;;4853000;29;20030;-95
2021/06/11 08:16:09;;;;;;;1.27;0.60;;;17.60;99.90;;;;;;4838806;29;20083;-94
2021/06/11 08:18:36;;;;;;;1.48;0.32;;;17.60;99.90;;;;;;4836943;29;20033;-94
2021/06/11 08:21:05;;;;;;;1.50;0.50;;;17.60;99.90;;;;;;4857149;29;20041;-95
2021/06/11 08:23:31;;;;;;;0.65;0.47;;;17.60;99.90;;;;;;4864084;29;20018;-94
2021/06/11 08:25:57;;;;;;;1.83;0.60;;;17.50;99.90;;;;;;4845398;29;20084;-92
2021/06/11 08:28:23;;;;;;;2.67;0.40;;;17.50;99.90;;;;;;4845056;29;20010;-95
2021/06/11 08:30:49;;;;;;;2.05;0.50;;;17.50;99.90;;;;;;4858549;29;20042;-95
2021/06/11 08:33:16;;;;;;;0.45;0.45;;;17.60;99.90;;;;;;4860206;29;20392;-94
2021/06/11 08:35:43;;;;;;;1.95;0.50;;;17.60;99.90;;;;;;4859770;29;20477;-94
2021/06/11 08:38:09;;;;;;;0.85;0.60;;;17.70;99.90;;;;;;4860008;29;20030;-93
2021/06/11 08:40:35;;;;;;;3.15;0.65;;;17.80;99.90;;;;;;4860121;29;20053;-94
2021/06/11 08:43:01;;;;;;;2.10;0.70;;;17.90;99.90;;;;;;4843337;29;20057;-94
2021/06/11 08:45:28;;;;;;;0.70;0.55;;;18.10;99.90;;;;;;4841928;29;20030;-93
2021/06/11 08:47:54;;;;;;;0.50;0.50;;;18.40;99.90;;;;;;4856902;29;20034;-95
2021/06/11 08:50:28;;;;;;;1.70;0.88;;;18.60;99.90;;;;;;4857792;29;20056;-95
2021/06/11 08:52:56;;;;;;;2.35;0.70;;;18.80;99.90;;;;;;4861129;29;20137;-95
2021/06/11 08:55:22;;;;;;;3.45;0.70;;;18.90;99.90;;;;;;4849969;29;20033;-95
2021/06/11 08:57:49;;;;;;;1.27;0.57;;;18.90;99.80;;;;;;4830030;29;20045;-94
2021/06/11 09:00:15;;;;;;;1.60;1.10;;;18.90;99.40;;;;;;4840535;29;20026;-94
2021/06/11 09:03:06;;;;;;;3.20;0.90;;;18.90;98.90;;;;;;4827055;29;20030;-94
2021/06/11 09:05:31;;;;;;;1.73;0.80;;;19.00;98.90;;;;;;4845761;29;20033;-96
2021/06/11 09:08:11;;;;;;;4.30;0.68;;;19.10;99.00;;;;;;4856520;29;20041;-95
2021/06/11 09:10:37;;;;;;;1.42;0.75;;;19.10;98.60;;;;;;4858406;29;20026;-93
2021/06/11 09:13:02;;;;;;;4.03;0.90;;;19.20;98.40;;;;;;4847249;29;20030;-94
2021/06/11 09:15:28;;;;;;;4.72;0.90;;;19.10;98.00;;;;;;4832083;29;20034;-94
2021/06/11 09:17:55;;;;;;;3.78;0.80;;;19.10;98.20;;;;;;4833980;29;20040;-94
2021/06/11 09:20:40;;;;;;;1.85;0.85;;;19.00;98.60;;;;;;4847827;29;20061;-93
2021/06/11 09:23:08;;;;;;;5.20;1.00;;;19.10;98.90;;;;;;4836900;29;20485;-94
2021/06/11 09:25:43;;;;;;;1.23;0.70;;;19.00;98.50;;;;;;4836642;29;20053;-94
2021/06/11 09:28:10;;;;;;;2.92;0.90;;;18.90;98.60;;;;;;4845154;29;20038;-94
2021/06/11 09:30:36;;;;;;;0.40;0.40;;;18.90;98.90;;;;;;4844104;29;20073;-95
2021/06/11 09:33:08;;;;;;;3.70;0.90;;;18.80;99.10;;;;;;4842344;29;20065;-96
2021/06/11 09:35:40;;;;;;;2.72;1.08;;;18.70;99.30;;;;;;4861325;29;20030;-92
2021/06/11 09:38:26;;;;;;;1.50;0.70;;;18.60;99.60;;;;;;4838975;29;20097;-93
2021/06/11 09:41:07;;;;;;;5.45;1.23;;;18.50;99.90;;;;;;4864039;29;20049;-95
2021/06/11 09:43:34;;;;;;;1.50;0.73;;;18.40;99.90;;;;;;4843523;29;20040;-91
2021/06/11 09:46:10;;;;;;;1.63;1.00;;;18.40;99.90;;;;;;4842599;29;20564;-92
2021/06/11 09:48:44;;;;;;;2.70;0.98;;;18.40;99.90;;;;;;4848973;29;20029;-94
2021/06/11 09:51:22;;;;;;;1.70;0.90;;;18.40;99.90;;;;;;4839947;29;20023;-94
2021/06/11 09:53:53;;;;;;;2.25;0.77;;;18.30;99.90;;;;;;4845537;29;20064;-95
2021/06/11 09:56:27;;;;;;;3.60;1.20;;;18.20;99.90;;;;;;4845511;29;20050;-96
2021/06/11 09:58:59;;;;;;;6.13;1.00;;;18.20;99.90;;;;;;4841149;29;20029;-93
2021/06/11 10:01:28;;;;;;;4.72;1.10;;;18.20;99.90;;;;;;4838423;29;20030;-93
2021/06/11 10:03:58;;;;;;;1.38;1.20;;;18.20;99.90;;;;;;4839793;29;20029;-94
2021/06/11 10:06:27;;;;;;;4.22;1.20;;;18.20;99.90;;;;;;4850417;29;20483;-94
2021/06/11 10:08:52;;;;;;;2.38;1.20;;;18.20;99.90;;;;;;4849895;29;20114;-92
2021/06/11 10:11:22;;;;;;;1.45;1.15;;;18.20;99.90;;;;;;4852138;29;20069;-95
2021/06/11 10:13:49;;;;;;;2.88;1.20;;;18.20;99.90;;;;;;4851387;29;20124;-93
2021/06/11 10:16:18;;;;;;;4.97;1.10;;;18.10;99.90;;;;;;4845135;29;20030;-94
2021/06/11 10:18:44;;;;;;;2.17;0.98;;;18.10;99.90;;;;;;4838731;29;20053;-92
2021/06/11 10:21:13;;;;;;;2.20;1.33;;;18.10;99.90;;;;;;4832523;29;20050;-95
2021/06/11 10:23:40;;;;;;;2.67;1.15;;;18.10;99.90;;;;;;4849481;29;20046;-94
2021/06/11 10:26:08;;;;;;;2.55;1.23;;;18.20;99.90;;;;;;4836518;29;20046;-93
2021/06/11 10:28:48;;;;;;;5.10;1.13;;;18.20;99.90;;;;;;4839862;29;20033;-93
2021/06/11 10:31:15;;;;;;;;;;;18.20;99.90;;;;;;4832699;29;20026;-93
2021/06/11 10:33:51;;;;;;;2.70;1.15;;;18.30;99.90;;;;;;4846288;29;19918;-95
2021/06/11 10:36:36;;;;;;;2.45;1.30;;;18.30;99.90;;;;;;4852396;29;20034;-95
2021/06/11 10:39:13;;;;;;;1.88;1.02;;;18.20;99.90;;;;;;4847932;29;20033;-91
2021/06/11 14:32:58;;;;;;;3.13;0.80;;;24.80;62.20;;;;;;4897805;29;20057;-96
2021/06/11 14:35:34;;;;;;;1.38;0.80;;;24.90;61.50;;;;;;4884252;29;20033;-96
2021/06/11 14:38:48;;;;;;;2.85;0.88;;;24.80;61.20;;;;;;4881207;29;20483;-96
2021/06/11 19:01:55;;;;;;;10.35;3.35;;;19.10;76.40;;;;;;5339769;23;20988;31
2021/06/11 19:04:24;;;;;;;8.05;2.72;;;19.10;76.60;;;;;;4784113;30;20063;-95
2021/06/11 19:06:54;;;;;;;8.65;2.50;;;19.10;76.70;;;;;;4788493;30;20055;-96
2021/06/11 19:09:20;;;;;;;8.70;2.85;;;19.00;77.50;;;;;;4781394;30;20110;-95
2021/06/11 19:12:08;;;;;;;9.13;2.53;;;19.00;76.90;;;;;;4780408;30;20075;-92
2021/06/11 19:14:37;;;;;;;10.02;3.35;;;18.90;76.90;;;;;;4780006;30;20040;-94
2021/06/11 19:17:07;;;;;;;7.35;2.92;;;18.80;77.10;;;;;;4782412;29;20027;-95
2021/06/11 19:19:45;;;;;;;10.98;3.00;;;18.70;77.50;;;;;;4804849;29;20050;-94
2021/06/11 19:22:32;;;;;;;7.20;2.85;;;18.60;77.80;;;;;;4909431;23;20106;-96
2021/06/11 19:27:37;;;;;;;9.37;3.50;;;18.50;77.80;;;;;;4885886;29;20057;-96
2021/06/11 19:33:22;;;;;;;7.78;2.83;;;18.50;78.40;;;;;;4944253;23;20136;-96
2021/06/11 19:35:55;;;;;;;5.60;2.70;;;18.50;78.50;;;;;;4891092;29;20053;-96
2021/06/11 19:38:34;;;;;;;8.15;2.78;;;18.30;78.60;;;;;;4886320;29;20051;-95
2021/06/11 19:41:08;;;;;;;6.65;2.60;;;18.30;78.90;;;;;;4889551;29;20040;-95
2021/06/11 19:43:41;;;;;;;9.48;3.15;;;18.30;79.20;;;;;;4874374;29;20149;-95
2021/06/11 19:46:25;;;;;;;8.98;3.55;;;18.20;79.30;;;;;;4891196;29;20103;-93
2021/06/11 19:49:15;;;;;;;8.43;2.63;;;18.20;79.60;;;;;;4876802;29;20036;-95
2021/06/11 19:51:47;;;;;;;5.82;2.60;;;18.30;79.60;;;;;;4888566;29;20112;-93
2021/06/11 19:54:24;;;;;;;12.57;3.88;;;18.20;79.60;;;;;;4902267;29;20029;-94
2021/06/11 19:56:53;;;;;;;11.48;3.60;;;18.20;79.80;;;;;;4883630;29;20423;-94
2021/06/11 19:59:23;;;;;;;10.35;2.90;;;18.30;79.90;;;;;;4889839;29;20044;-94
2021/06/11 20:01:50;;;;;;;10.70;2.95;;;18.30;79.90;;;;;;4886770;29;20029;-96
2021/06/11 20:04:19;;;;;;;8.45;3.72;;;18.20;80.00;;;;;;4890413;29;20025;-95
2021/06/11 20:06:49;;;;;;;10.77;3.03;;;18.10;80.20;;;;;;4871935;29;20069;-95
2021/06/11 20:09:18;;;;;;;6.63;3.13;;;18.00;80.50;;;;;;4882553;29;20091;-95
2021/06/11 20:11:44;;;;;;;9.18;2.47;;;17.90;80.80;;;;;;4882718;29;20028;-95
2021/06/11 20:14:12;;;;;;;9.60;2.58;;;17.70;81.10;;;;;;4890517;29;20021;-96
2021/06/11 20:16:39;;;;;;;11.73;3.00;;;17.60;81.40;;;;;;4894396;29;20040;-94
2021/06/11 20:19:10;;;;;;;9.02;3.17;;;17.60;81.80;;;;;;4894933;29;20025;-94
2021/06/11 20:21:38;;;;;;;8.57;2.67;;;17.40;82.00;;;;;;4889069;29;20035;-96
2021/06/11 20:24:15;;;;;;;10.23;3.17;;;17.40;82.20;;;;;;4890682;29;20044;-96
2021/06/11 20:26:41;;;;;;;10.80;2.80;;;17.40;82.50;;;;;;4887205;29;20052;-94
2021/06/11 20:29:12;;;;;;;8.93;3.05;;;17.40;82.70;;;;;;4888825;29;20029;-94
2021/06/11 20:31:42;;;;;;;10.27;3.80;;;17.40;82.80;;;;;;4902979;29;20052;-95
2021/06/11 20:34:07;;;;;;;10.75;3.47;;;17.30;82.70;;;;;;4890382;29;20032;-96
2021/06/11 20:36:34;;;;;;;10.35;3.30;;;17.30;83.10;;;;;;4894614;29;20062;-95
2021/06/11 20:39:00;;;;;;;6.65;2.78;;;17.30;83.40;;;;;;4873260;29;20017;-94
2021/06/11 20:41:26;;;;;;;12.95;3.30;;;17.30;83.10;;;;;;4877084;29;20035;-95
2021/06/11 20:43:52;;;;;;;11.18;3.25;;;17.20;83.10;;;;;;4876596;29;20093;-93
2021/06/11 20:46:23;;;;;;;10.35;3.97;;;17.20;83.30;;;;;;4884331;29;20039;-94
2021/06/11 20:48:48;;;;;;;;;;;17.20;83.40;;;;;;4883915;29;20032;-95
2021/06/11 20:51:14;;;;;;;6.13;2.88;;;17.10;83.40;;;;;;4909754;29;19945;-95
2021/06/11 20:53:40;;;;;;;10.57;3.08;;;17.00;83.50;;;;;;4883075;29;20033;-95
2021/06/11 20:56:06;;;;;;;15.20;3.22;;;17.00;83.70;;;;;;4892131;29;20024;-94
2021/06/11 20:58:32;;;;;;;9.98;2.45;;;17.00;83.90;;;;;;4887547;29;20061;-95
2021/06/11 21:00:58;;;;;;;8.60;2.97;;;16.90;84.20;;;;;;4886694;29;20025;-94
2021/06/11 21:03:24;;;;;;;7.15;2.88;;;16.90;84.40;;;;;;4879724;29;20043;-94
2021/06/11 21:05:49;;;;;;;10.65;2.88;;;16.90;84.70;;;;;;4894548;29;20119;-95
2021/06/11 21:08:15;;;;;;;11.05;3.03;;;16.90;84.90;;;;;;4887200;29;20033;-95
2021/06/11 21:10:42;;;;;;;8.65;2.45;;;16.90;85.10;;;;;;4886082;29;20028;-96
2021/06/11 21:13:10;;;;;;;9.93;2.80;;;16.90;85.50;;;;;;4899795;29;20048;-95
2021/06/11 21:15:36;;;;;;;11.27;3.78;;;17.00;85.70;;;;;;4885953;29;20057;-94
2021/06/11 21:18:02;;;;;;;7.28;2.72;;;17.00;85.90;;;;;;4883026;29;20052;-94
2021/06/11 21:20:30;;;;;;;6.65;2.85;;;17.00;86.00;;;;;;4890237;29;20033;-94
2021/06/11 21:23:05;;;;;;;10.73;2.83;;;17.00;86.00;;;;;;4882218;29;20100;-94
2021/06/11 21:25:32;;;;;;;9.30;2.63;;;17.00;86.00;;;;;;4885791;29;20050;-93
2021/06/11 21:28:00;;;;;;;6.28;2.75;;;17.00;86.00;;;;;;4885846;29;20044;-93
2021/06/11 21:30:26;;;;;;;9.25;2.90;;;17.00;86.00;;;;;;4884070;29;20028;-93